createdAt,value
2022-09-06T00:03:32.414Z,99742.66
2022-09-06T00:05:59.322Z,99741.00
2022-09-06T00:08:26.483Z,99744.50
2022-09-06T00:11:01.307Z,99738.47
2022-09-06T00:13:28.874Z,99735.03
2022-09-06T00:15:55.981Z,99729.81
2022-09-06T00:18:23.745Z,99730.56
2022-09-06T00:20:50.772Z,99738.34
2022-09-06T00:23:17.751Z,99738.41
2022-09-06T00:25:44.664Z,99734.03
2022-09-06T00:28:11.531Z,99735.16
2022-09-06T00:30:38.572Z,99730.78
2022-09-06T00:33:05.584Z,99739.53
2022-09-06T00:35:32.601Z,99735.16
2022-09-06T00:38:01.203Z,99736.91
2022-09-06T00:40:30.932Z,99743.03
2022-09-06T00:42:58.451Z,99737.75
2022-09-06T00:45:28.003Z,99736.72
2022-09-06T00:47:55.691Z,99738.34
2022-09-06T00:50:22.993Z,99735.72
2022-09-06T00:52:52.911Z,99728.69
2022-09-06T00:55:21.274Z,99726.06
2022-09-06T00:57:52.844Z,99739.19
2022-09-06T01:00:21.119Z,99727.84
2022-09-06T01:02:49.163Z,99732.16
2022-09-06T01:05:17.224Z,99729.53
2022-09-06T01:07:44.235Z,99733.00
2022-09-06T01:10:44.170Z,99734.75
2022-09-06T01:13:42.207Z,99740.88
2022-09-06T01:16:33.296Z,99746.13
2022-09-06T01:19:21.978Z,99747.88
2022-09-06T01:22:06.949Z,99744.34
2022-09-06T01:24:45.728Z,99752.13
2022-09-06T01:27:46.949Z,99749.53
2022-09-06T01:30:18.719Z,99758.25
2022-09-06T01:32:59.068Z,99750.38
2022-09-06T01:35:48.396Z,99743.34
2022-09-06T01:38:17.497Z,99740.66
2022-09-06T01:40:44.677Z,99742.28
2022-09-06T01:43:17.967Z,99747.59
2022-09-06T01:45:57.709Z,99745.91
2022-09-06T01:48:40.403Z,99748.50
2022-09-06T01:51:16.365Z,99746.81
2022-09-06T01:53:55.243Z,99747.69
2022-09-06T01:56:43.843Z,99742.50
2022-09-06T01:59:22.633Z,99737.28
2022-09-06T02:02:09.692Z,99740.00
2022-09-06T02:04:42.703Z,99734.13
2022-09-06T02:07:20.485Z,99728.94
2022-09-06T02:10:00.346Z,99737.78
2022-09-06T02:12:30.417Z,99728.06
2022-09-06T02:15:02.625Z,99735.13
2022-09-06T02:17:38.640Z,99730.63
2022-09-06T02:20:13.304Z,99726.16
2022-09-06T02:22:44.530Z,99726.09
2022-09-06T02:25:19.711Z,99726.91
2022-09-06T02:27:46.860Z,99725.06
2022-09-06T02:30:14.292Z,99721.53
2022-09-06T02:32:48.492Z,99722.38
2022-09-06T02:35:17.078Z,99718.00
2022-09-06T02:37:45.010Z,99719.69
2022-09-06T02:40:12.766Z,99715.28
2022-09-06T02:42:40.188Z,99722.25
2022-09-06T02:45:08.062Z,99704.84
2022-09-06T02:47:35.184Z,99723.88
2022-09-06T02:50:02.433Z,99721.25
2022-09-06T02:52:29.505Z,99726.56
2022-09-06T02:54:56.769Z,99723.94
2022-09-06T02:57:23.864Z,99726.53
2022-09-06T02:59:51.581Z,99730.94
2022-09-06T03:02:19.328Z,99729.28
2022-09-06T03:04:46.441Z,99725.78
2022-09-06T03:07:13.621Z,99724.03
2022-09-06T03:09:41.793Z,99716.16
2022-09-06T03:12:08.942Z,99718.78
2022-09-06T03:14:36.293Z,99728.41
2022-09-06T03:17:04.567Z,99719.66
2022-09-06T03:19:31.623Z,99718.84
2022-09-06T03:21:58.631Z,99720.53
2022-09-06T03:24:25.653Z,99718.00
2022-09-06T03:26:52.744Z,99722.41
2022-09-06T03:29:19.731Z,99718.00
2022-09-06T03:31:46.732Z,99715.44
2022-09-06T03:34:13.701Z,99719.91
2022-09-06T03:36:40.753Z,99719.03
2022-09-06T03:39:07.823Z,99723.38
2022-09-06T03:41:34.849Z,99724.34
2022-09-06T03:44:02.364Z,99719.06
2022-09-06T03:46:30.962Z,99724.28
2022-09-06T03:48:59.393Z,99712.91
2022-09-06T03:51:29.443Z,99723.38
2022-09-06T03:53:56.541Z,99717.34
2022-09-06T03:56:23.593Z,99721.69
2022-09-06T03:58:50.571Z,99722.59
2022-09-06T04:01:21.103Z,99726.94
2022-09-06T04:03:48.225Z,99732.31
2022-09-06T04:06:15.193Z,99727.94
2022-09-06T04:08:42.263Z,99721.75
2022-09-06T04:11:09.436Z,99723.53
2022-09-06T04:13:37.212Z,99728.81
2022-09-06T04:16:05.623Z,99722.63
2022-09-06T04:18:32.582Z,99729.66
2022-09-06T04:20:59.825Z,99725.25
2022-09-06T04:23:28.683Z,99731.38
2022-09-06T04:25:57.895Z,99734.03
2022-09-06T04:28:26.893Z,99734.84
2022-09-06T04:31:01.959Z,99733.16
2022-09-06T04:33:32.817Z,99729.63
2022-09-06T04:36:01.465Z,99727.88
2022-09-06T04:38:30.091Z,99724.38
2022-09-06T04:40:57.493Z,99730.53
2022-09-06T04:43:24.794Z,99726.13
2022-09-06T04:45:52.019Z,99733.91
2022-09-06T04:48:19.329Z,99725.91
2022-09-06T04:50:46.369Z,99727.56
2022-09-06T04:53:13.637Z,99730.09
2022-09-06T04:55:40.710Z,99728.19
2022-09-06T04:58:07.896Z,99726.34
2022-09-06T05:00:36.129Z,99721.88
2022-09-06T05:03:03.192Z,99728.78
2022-09-06T05:05:30.319Z,99732.22
2022-09-06T05:07:57.571Z,99730.41
2022-09-06T05:10:25.024Z,99737.28
2022-09-06T05:12:54.014Z,99732.91
2022-09-06T05:15:22.615Z,99740.81
2022-09-06T05:17:49.830Z,99726.72
2022-09-06T05:20:17.908Z,99731.78
2022-09-06T05:22:53.415Z,99738.72
2022-09-06T05:25:20.629Z,99731.66
2022-09-06T05:27:47.821Z,99737.69
2022-09-06T05:30:15.263Z,99734.88
2022-09-06T05:32:42.286Z,99738.97
2022-09-06T05:35:09.476Z,99748.41
2022-09-06T05:37:36.437Z,99747.41
2022-09-06T05:40:03.910Z,99753.31
2022-09-06T05:42:30.975Z,99753.16
2022-09-06T05:44:57.961Z,99748.63
2022-09-06T05:47:25.244Z,99752.84
2022-09-06T05:49:52.360Z,99758.81
2022-09-06T05:52:20.059Z,99758.75
2022-09-06T05:54:47.158Z,99761.06
2022-09-06T05:57:14.221Z,99759.00
2022-09-06T05:59:41.162Z,99765.00
2022-09-06T06:02:08.267Z,99760.34
2022-09-06T06:04:35.476Z,99763.16
2022-09-06T06:07:02.505Z,99765.66
2022-09-06T06:09:29.582Z,99761.06
2022-09-06T06:11:56.807Z,99753.97
2022-09-06T06:14:23.899Z,99764.06
2022-09-06T06:16:51.041Z,99769.13
2022-09-06T06:19:18.058Z,99765.38
2022-09-06T06:21:45.147Z,99770.47
2022-09-06T06:24:12.204Z,99770.25
2022-09-06T06:26:39.331Z,99762.75
2022-09-06T06:29:09.817Z,99767.28
2022-09-06T06:31:39.007Z,99771.78
2022-09-06T06:34:09.222Z,99771.94
2022-09-06T06:36:38.313Z,99771.84
2022-09-06T06:39:08.582Z,99774.50
2022-09-06T06:41:36.053Z,99774.50
2022-09-06T06:44:05.075Z,99769.31
2022-09-06T06:46:36.867Z,99772.63
2022-09-06T06:49:04.786Z,99770.09
2022-09-06T06:51:37.279Z,99766.66
2022-09-06T06:54:05.683Z,99774.31
2022-09-06T06:56:37.074Z,99778.34
2022-09-06T06:59:05.765Z,99767.31
2022-09-06T07:01:35.015Z,99772.81
2022-09-06T07:04:02.449Z,99777.81
2022-09-06T07:09:18.781Z,99770.72
2022-09-06T07:11:46.765Z,99774.72
2022-09-06T07:14:13.891Z,99773.22
2022-09-06T07:16:40.970Z,99770.94
2022-09-06T07:19:08.293Z,99775.59
2022-09-06T07:24:06.219Z,99769.22
2022-09-06T07:26:35.406Z,99769.22
2022-09-06T07:29:04.118Z,99773.91
2022-09-06T07:34:20.826Z,99771.00
2022-09-06T07:36:48.625Z,99775.84
2022-09-06T07:39:15.810Z,99776.00
2022-09-06T07:41:43.398Z,99772.25
2022-09-06T07:44:10.589Z,99775.44
2022-09-06T07:46:43.179Z,99770.31
2022-09-06T07:49:10.206Z,99777.47
2022-09-06T07:51:37.299Z,99771.00
2022-09-06T07:56:52.651Z,99771.88
2022-09-06T07:59:19.863Z,99785.94
2022-09-06T08:01:47.809Z,99782.88
2022-09-06T08:04:15.366Z,99780.22
2022-09-06T08:09:35.683Z,99779.75
2022-09-06T08:12:07.110Z,99780.56
2022-09-06T08:14:35.411Z,99774.31
2022-09-06T08:17:03.765Z,99765.47
2022-09-06T08:19:30.811Z,99764.78
2022-09-06T08:21:57.879Z,99762.44
2022-09-06T08:24:25.077Z,99762.94
2022-09-06T08:26:52.416Z,99757.16
2022-09-06T08:29:22.144Z,99756.53
2022-09-06T08:31:49.480Z,99755.88
2022-09-06T08:34:16.636Z,99755.31
2022-09-06T08:36:44.412Z,99767.22
2022-09-06T08:39:12.084Z,99764.34
2022-09-06T08:42:05.515Z,99764.47
2022-09-06T08:45:00.641Z,99758.09
2022-09-06T08:47:28.010Z,99751.09
2022-09-06T08:50:13.961Z,99757.72
2022-09-06T08:53:16.282Z,99755.41
2022-09-06T08:56:04.530Z,99750.69
2022-09-06T08:58:34.008Z,99760.56
2022-09-06T09:01:12.041Z,99753.78
2022-09-06T09:03:41.513Z,99751.69
2022-09-06T09:06:10.464Z,99754.16
2022-09-06T09:08:40.416Z,99748.25
2022-09-06T09:11:11.909Z,99746.50
2022-09-06T09:13:47.966Z,99742.09
2022-09-06T09:16:15.879Z,99746.31
2022-09-06T09:18:50.865Z,99736.97
2022-09-06T09:21:25.670Z,99736.75
2022-09-06T09:23:59.053Z,99734.06
2022-09-06T09:26:31.264Z,99734.09
2022-09-06T09:29:05.525Z,99722.41
2022-09-06T09:31:41.181Z,99728.00
2022-09-06T09:34:13.175Z,99729.47
2022-09-06T09:36:40.876Z,99724.44
2022-09-06T09:39:11.744Z,99726.34
2022-09-06T09:41:43.808Z,99724.97
2022-09-06T09:44:17.805Z,99722.25
2022-09-06T09:46:45.121Z,99711.72
2022-09-06T09:49:27.940Z,99722.31
2022-09-06T09:52:07.410Z,99712.88
2022-09-06T09:54:39.716Z,99725.56
2022-09-06T09:57:11.817Z,99713.97
2022-09-06T09:59:49.674Z,99717.84
2022-09-06T10:02:30.293Z,99713.81
2022-09-06T10:05:10.014Z,99703.19
2022-09-06T10:07:44.675Z,99703.47
2022-09-06T10:10:22.553Z,99708.00
2022-09-06T10:13:06.247Z,99702.16
2022-09-06T10:15:38.068Z,99689.84
2022-09-06T10:18:05.360Z,99692.81
2022-09-06T10:20:50.447Z,99690.81
2022-09-06T10:26:51.404Z,99691.09
2022-09-06T10:29:26.395Z,99684.31
2022-09-06T10:32:17.934Z,99679.94
2022-09-06T10:35:13.940Z,99686.13
2022-09-06T10:38:16.021Z,99686.31
2022-09-06T10:40:54.940Z,99685.25
2022-09-06T10:43:22.078Z,99684.78
2022-09-06T10:45:57.559Z,99681.16
2022-09-06T10:48:30.993Z,99677.13
2022-09-06T10:51:06.185Z,99674.94
2022-09-06T10:53:44.908Z,99682.00
2022-09-06T10:56:18.582Z,99684.94
2022-09-06T11:02:12.558Z,99681.34
2022-09-06T11:10:34.749Z,99663.19
2022-09-06T11:13:04.495Z,99661.28
2022-09-06T11:16:07.711Z,99658.03
2022-09-06T11:18:56.003Z,99659.16
2022-09-06T11:21:47.381Z,99661.34
2022-09-06T11:24:40.241Z,99645.38
2022-09-06T11:27:12.981Z,99655.66
2022-09-06T11:29:52.232Z,99660.69
2022-09-06T11:32:37.450Z,99652.66
2022-09-06T11:35:11.232Z,99641.44
2022-09-06T11:37:45.330Z,99643.38
2022-09-06T11:40:27.924Z,99636.53
2022-09-06T11:42:55.594Z,99635.53
2022-09-06T11:45:47.862Z,99637.50
2022-09-06T11:48:44.459Z,99632.06
2022-09-06T11:51:12.515Z,99627.66
2022-09-06T11:53:48.710Z,99628.03
2022-09-06T11:56:38.131Z,99631.16
2022-09-06T11:59:13.752Z,99620.81
2022-09-06T12:01:41.177Z,99622.78
2022-09-06T12:04:10.148Z,99623.47
2022-09-06T12:07:11.217Z,99621.13
2022-09-06T12:09:41.340Z,99622.94
2022-09-06T12:12:12.423Z,99615.41
2022-09-06T12:14:48.338Z,99615.41
2022-09-06T12:17:15.306Z,99615.91
2022-09-06T12:19:53.097Z,99609.19
2022-09-06T12:22:33.002Z,99609.09
2022-09-06T12:25:05.772Z,99618.53
2022-09-06T12:27:39.733Z,99607.41
2022-09-06T12:30:13.211Z,99599.69
2022-09-06T12:32:52.124Z,99603.50
2022-09-06T12:38:17.402Z,99593.81
2022-09-06T12:40:48.247Z,99592.16
2022-09-06T12:43:17.305Z,99580.59
2022-09-06T12:45:50.872Z,99582.00
2022-09-06T12:48:30.668Z,99576.13
2022-09-06T12:51:06.876Z,99575.22
2022-09-06T12:53:35.142Z,99567.28
2022-09-06T12:56:07.366Z,99572.16
2022-09-06T12:58:35.274Z,99563.56
2022-09-06T13:01:15.291Z,99558.13
2022-09-06T13:04:26.916Z,99567.50
2022-09-06T13:06:55.461Z,99558.16
2022-09-06T13:09:27.218Z,99552.69
2022-09-06T13:12:00.934Z,99551.91
2022-09-06T13:14:31.456Z,99552.69
2022-09-06T13:16:58.703Z,99557.44
2022-09-06T13:19:39.943Z,99558.53
2022-09-06T13:22:11.274Z,99552.97
2022-09-06T13:24:40.677Z,99549.72
2022-09-06T13:27:25.012Z,99544.38
2022-09-06T13:29:56.886Z,99539.88
2022-09-06T13:32:23.966Z,99548.19
2022-09-06T13:34:58.510Z,99551.63
2022-09-06T13:37:31.875Z,99541.03
2022-09-06T13:39:59.984Z,99532.84
2022-09-06T13:42:33.278Z,99536.75
2022-09-06T13:45:30.297Z,99533.72
2022-09-06T13:48:13.218Z,99522.34
2022-09-06T13:50:44.850Z,99532.16
2022-09-06T13:53:11.951Z,99533.13
2022-09-06T13:55:39.119Z,99525.84
2022-09-06T13:58:06.281Z,99523.38
2022-09-06T14:00:33.409Z,99514.81
2022-09-06T14:03:01.013Z,99517.47
2022-09-06T14:05:27.998Z,99511.47
2022-09-06T14:07:55.208Z,99513.66
2022-09-06T14:10:24.092Z,99518.31
2022-09-06T14:12:53.548Z,99506.88
2022-09-06T14:15:20.991Z,99495.41
2022-09-06T14:17:48.061Z,99502.00
2022-09-06T14:20:15.138Z,99505.06
2022-09-06T14:22:42.231Z,99497.09
2022-09-06T14:25:10.265Z,99505.31
2022-09-06T14:27:37.287Z,99506.19
2022-09-06T14:30:05.076Z,99509.38
2022-09-06T14:32:32.062Z,99506.94
2022-09-06T14:35:00.474Z,99496.53
2022-09-06T14:37:27.363Z,99498.63
2022-09-06T14:40:25.999Z,99501.16
2022-09-06T14:42:53.102Z,99499.38
2022-09-06T14:45:20.412Z,99498.59
2022-09-06T14:47:47.591Z,99495.31
2022-09-06T14:50:14.664Z,99491.03
2022-09-06T14:52:41.653Z,99488.63
2022-09-06T14:55:09.168Z,99485.47
2022-09-06T14:57:36.225Z,99483.19
2022-09-06T15:00:08.788Z,99479.44
2022-09-06T15:02:36.172Z,99484.78
2022-09-06T15:05:03.714Z,99484.22
2022-09-06T15:07:31.972Z,99478.38
2022-09-06T15:09:59.309Z,99479.38
2022-09-06T15:12:26.413Z,99464.13
2022-09-06T15:14:53.686Z,99473.41
2022-09-06T15:17:20.696Z,99479.88
2022-09-06T15:19:47.916Z,99478.91
2022-09-06T15:22:15.015Z,99475.09
2022-09-06T15:24:42.027Z,99482.59
2022-09-06T15:27:09.046Z,99474.16
2022-09-06T15:29:36.035Z,99478.78
2022-09-06T15:32:03.236Z,99477.41
2022-09-06T15:34:30.321Z,99475.94
2022-09-06T15:36:57.315Z,99478.34
2022-09-06T15:39:24.413Z,99478.75
2022-09-06T15:41:51.984Z,99479.63
2022-09-06T15:44:21.718Z,99473.56
2022-09-06T15:46:54.804Z,99476.13
2022-09-06T15:49:28.041Z,99465.75
2022-09-06T15:51:57.264Z,99468.47
2022-09-06T15:54:44.703Z,99464.81
2022-09-06T15:57:12.554Z,99466.72
2022-09-06T15:59:41.114Z,99472.56
2022-09-06T16:02:08.810Z,99467.84
2022-09-06T16:04:35.960Z,99474.78
2022-09-06T16:07:03.689Z,99464.38
2022-09-06T16:09:31.091Z,99469.09
2022-09-06T16:11:58.066Z,99471.97
2022-09-06T16:14:25.438Z,99462.75
2022-09-06T16:16:54.726Z,99472.66
2022-09-06T16:19:22.079Z,99471.16
2022-09-06T16:21:49.333Z,99468.03
2022-09-06T16:24:18.343Z,99461.13
2022-09-06T16:26:49.169Z,99458.84
2022-09-06T16:29:18.364Z,99468.06
2022-09-06T16:31:46.109Z,99462.94
2022-09-06T16:34:13.830Z,99465.16
2022-09-06T16:36:41.370Z,99461.94
2022-09-06T16:39:09.647Z,99456.22
2022-09-06T16:41:46.317Z,99464.69
2022-09-06T16:44:17.461Z,99453.56
2022-09-06T16:46:49.574Z,99455.06
2022-09-06T16:49:17.745Z,99454.53
2022-09-06T16:51:45.541Z,99455.53
2022-09-06T16:54:12.716Z,99455.88
2022-09-06T16:56:40.225Z,99458.78
2022-09-06T16:59:08.774Z,99464.44
2022-09-06T17:01:37.971Z,99463.03
2022-09-06T17:04:05.917Z,99465.19
2022-09-06T17:06:48.340Z,99456.75
2022-09-06T17:09:19.222Z,99462.31
2022-09-06T17:11:50.199Z,99455.69
2022-09-06T17:14:18.351Z,99455.75
2022-09-06T17:17:04.081Z,99456.19
2022-09-06T17:19:39.609Z,99459.19
2022-09-06T17:22:13.089Z,99463.22
2022-09-06T17:24:41.650Z,99470.75
2022-09-06T17:27:09.960Z,99475.53
2022-09-06T17:29:37.301Z,99470.75
2022-09-06T17:32:10.131Z,99467.50
2022-09-06T17:34:38.992Z,99473.84
2022-09-06T17:37:06.575Z,99476.13
2022-09-06T17:39:36.086Z,99484.41
2022-09-06T17:42:03.634Z,99478.91
2022-09-06T17:44:30.618Z,99490.66
2022-09-06T17:47:14.196Z,99493.44
2022-09-06T17:49:42.662Z,99488.44
2022-09-06T17:52:10.434Z,99497.69
2022-09-06T17:54:37.511Z,99498.63
2022-09-06T17:57:04.659Z,99505.84
2022-09-06T17:59:35.384Z,99500.03
2022-09-06T18:02:03.038Z,99512.50
2022-09-06T18:04:30.193Z,99512.66
2022-09-06T18:06:57.195Z,99510.13
2022-09-06T18:09:24.186Z,99517.34
2022-09-06T18:11:51.210Z,99518.41
2022-09-06T18:14:20.980Z,99522.88
2022-09-06T18:16:49.633Z,99525.78
2022-09-06T18:19:17.929Z,99530.25
2022-09-06T18:21:45.735Z,99528.94
2022-09-06T18:24:16.305Z,99526.56
2022-09-06T18:26:43.851Z,99532.94
2022-09-06T18:29:16.803Z,99539.97
2022-09-06T18:31:44.618Z,99533.13
2022-09-06T18:34:12.294Z,99541.22
2022-09-06T18:36:39.650Z,99535.16
2022-09-06T18:39:07.094Z,99528.25
2022-09-06T18:41:53.108Z,99533.63
2022-09-06T18:44:20.187Z,99533.88
2022-09-06T18:46:47.272Z,99538.31
2022-09-06T18:49:15.646Z,99531.59
2022-09-06T18:51:43.552Z,99525.22
2022-09-06T18:54:11.165Z,99530.53
2022-09-06T18:56:38.705Z,99532.41
2022-09-06T18:59:06.244Z,99530.63
2022-09-06T19:01:35.232Z,99543.91
2022-09-06T19:04:03.801Z,99533.56
2022-09-06T19:06:32.698Z,99550.53
2022-09-06T19:09:01.973Z,99541.06
2022-09-06T19:11:29.527Z,99533.97
2022-09-06T19:13:58.046Z,99535.94
2022-09-06T19:16:27.427Z,99543.88
2022-09-06T19:18:56.251Z,99546.44
2022-09-06T19:21:25.689Z,99545.59
2022-09-06T19:24:05.021Z,99547.31
2022-09-06T19:26:38.080Z,99549.16
2022-09-06T19:29:09.149Z,99535.31
2022-09-06T19:31:38.338Z,99543.28
2022-09-06T19:34:06.055Z,99547.72
2022-09-06T19:36:33.125Z,99543.47
2022-09-06T19:39:03.904Z,99540.94
2022-09-06T19:41:34.295Z,99540.22
2022-09-06T19:44:01.825Z,99545.59
2022-09-06T19:46:29.107Z,99541.16
2022-09-06T19:48:56.510Z,99540.41
2022-09-06T19:51:24.722Z,99537.78
2022-09-06T19:54:00.141Z,99536.06
2022-09-06T19:56:33.948Z,99536.19
2022-09-06T19:59:04.077Z,99530.22
2022-09-06T20:01:33.024Z,99526.72
2022-09-06T20:04:02.927Z,99534.63
2022-09-06T20:06:30.962Z,99533.03
2022-09-06T20:08:59.645Z,99532.22
2022-09-06T20:11:29.678Z,99532.31
2022-09-06T20:13:57.118Z,99521.84
2022-09-06T20:16:25.110Z,99524.59
2022-09-06T20:18:54.723Z,99523.78
2022-09-06T20:21:21.946Z,99518.69
2022-09-06T20:23:54.401Z,99524.84
2022-09-06T20:26:24.033Z,99520.50
2022-09-06T20:28:59.171Z,99518.88
2022-09-06T20:31:28.241Z,99516.41
2022-09-06T20:33:56.085Z,99512.22
2022-09-06T20:36:23.391Z,99516.66
2022-09-06T20:38:51.198Z,99515.00
2022-09-06T20:41:23.834Z,99517.66
2022-09-06T20:43:52.801Z,99521.22
2022-09-06T20:46:22.150Z,99511.66
2022-09-06T20:48:49.670Z,99521.34
2022-09-06T20:51:22.131Z,99522.28
2022-09-06T20:53:53.446Z,99523.25
2022-09-06T20:56:23.278Z,99516.34
2022-09-06T20:58:53.009Z,99515.44
2022-09-06T21:01:25.496Z,99519.81
2022-09-06T21:03:54.647Z,99519.13
2022-09-06T21:06:22.719Z,99527.09
2022-09-06T21:08:50.555Z,99515.69
2022-09-06T21:11:18.483Z,99526.22
2022-09-06T21:13:51.304Z,99520.22
2022-09-06T21:16:23.947Z,99524.91
2022-09-06T21:18:56.270Z,99527.53
2022-09-06T21:21:23.944Z,99524.09
2022-09-06T21:23:51.302Z,99517.97
2022-09-06T21:26:18.610Z,99516.25
2022-09-06T21:28:47.309Z,99519.00
2022-09-06T21:31:36.409Z,99517.28
2022-09-06T21:34:06.910Z,99515.44
2022-09-06T21:36:38.855Z,99516.94
2022-09-06T21:39:12.444Z,99504.88
2022-09-06T21:41:41.635Z,99507.53
2022-09-06T21:44:09.486Z,99507.53
2022-09-06T21:46:38.422Z,99512.88
2022-09-06T21:49:08.011Z,99504.22
2022-09-06T21:51:35.383Z,99512.03
2022-09-06T21:54:06.075Z,99509.34
2022-09-06T21:56:36.072Z,99501.47
2022-09-06T21:59:04.891Z,99505.97
2022-09-06T22:01:35.036Z,99506.84
2022-09-06T22:04:02.687Z,99493.84
2022-09-06T22:06:31.262Z,99501.81
2022-09-06T22:09:01.317Z,99499.19
2022-09-06T22:11:31.980Z,99495.72
2022-09-06T22:14:01.174Z,99498.34
2022-09-06T22:16:28.970Z,99498.44
2022-09-06T22:18:56.211Z,99493.25
2022-09-06T22:21:23.781Z,99496.81
2022-09-06T22:24:03.815Z,99504.78
2022-09-06T22:26:33.253Z,99496.97
2022-09-06T22:29:02.903Z,99497.03
2022-09-06T22:31:31.646Z,99494.28
2022-09-06T22:33:59.111Z,99501.31
2022-09-06T22:36:26.582Z,99495.13
2022-09-06T22:38:57.830Z,99494.22
2022-09-06T22:41:31.554Z,99497.72
2022-09-06T22:44:02.459Z,99490.75
2022-09-06T22:46:30.009Z,99481.97
2022-09-06T22:48:57.382Z,99481.19
2022-09-06T22:51:24.793Z,99488.13
2022-09-06T22:53:51.871Z,99480.38
2022-09-06T22:56:19.224Z,99480.31
2022-09-06T22:58:46.312Z,99479.44
2022-09-06T23:01:16.127Z,99477.56
2022-09-06T23:03:44.055Z,99474.81
2022-09-06T23:06:11.334Z,99471.38
2022-09-06T23:08:40.235Z,99473.31
2022-09-06T23:11:10.370Z,99475.03
2022-09-06T23:13:38.099Z,99474.22
2022-09-06T23:16:09.670Z,99478.72
2022-09-06T23:18:36.961Z,99472.78
2022-09-06T23:21:15.945Z,99471.94
2022-09-06T23:23:43.184Z,99476.31
2022-09-06T23:26:11.876Z,99471.84
2022-09-06T23:28:39.327Z,99474.66
2022-09-06T23:31:08.547Z,99473.09
2022-09-06T23:33:38.716Z,99470.44
2022-09-06T23:36:10.284Z,99461.59
2022-09-06T23:38:39.045Z,99469.66
2022-09-06T23:41:07.134Z,99465.28
2022-09-06T23:43:34.388Z,99472.50
2022-09-06T23:46:01.431Z,99463.81
2022-09-06T23:48:28.861Z,99475.97
2022-09-06T23:50:56.178Z,99470.75
2022-09-06T23:53:23.805Z,99473.66
2022-09-06T23:55:50.847Z,99477.19
2022-09-06T23:58:18.006Z,99477.13
